Date,TemperatureHighF,TemperatureAvgF,TemperatureLowF,DewpointHighF,DewpointAvgF,DewpointLowF,HumidityHigh,HumidityAvg,HumidityLow,PressureMaxIn,PressureMinIn,WindSpeedMaxMPH,WindSpeedAvgMPH,GustSpeedMaxMPH,PrecipitationSumIn
2013-1-1,23.4,15.3,5.0,13.3,7.2,1.3,86,71,48,30.27,30.14,11,5,14,0.00
2013-1-2,31.6,17.3,4.6,18.1,9.5,1.1,88,73,48,30.25,30.12,8,3,17,0.00
2013-1-3,31.9,23.9,14.8,22.7,16.1,-99.9,82,74,59,30.32,30.20,17,5,26,0.00
2013-1-4,36.1,22.7,11.0,23.0,16.4,7.4,87,77,57,30.31,30.20,19,8,26,0.00
2013-1-5,36.8,28.3,15.2,32.3,24.8,12.3,92,87,69,30.26,29.96,12,4,15,0.01
2013-1-6,35.4,23.5,12.5,32.4,19.2,9.9,92,84,71,30.36,29.95,18,10,23,0.00
2013-1-7,40.6,26.5,11.3,27.6,20.6,8.7,91,79,57,30.36,30.12,11,4,17,0.00
2013-1-8,47.7,33.8,23.0,32.0,27.2,20.3,91,78,53,30.16,30.03,10,3,15,0.00
2013-1-9,48.0,35.3,20.7,34.9,27.1,17.4,90,74,42,30.50,30.02,21,8,28,0.00
2013-1-10,44.6,32.8,18.9,41.9,27.4,16.1,96,82,47,30.50,29.84,12,5,17,0.53
2013-1-11,51.0,47.4,42.4,48.7,45.8,41.3,97,94,88,29.84,29.62,10,5,18,0.17
2013-1-12,50.6,39.0,28.0,47.5,35.1,24.8,91,86,79,29.99,29.69,17,8,19,0.01
2013-1-13,28.2,19.8,12.8,25.4,15.6,7.5,91,83,78,30.28,29.88,14,9,19,0.00
2013-1-14,24.4,16.1,11.2,15.3,11.0,7.2,89,80,67,30.49,30.28,8,3,13,0.00
2013-1-15,30.7,19.3,9.4,20.2,14.2,6.6,92,81,61,30.47,30.14,4,0,5,0.02
2013-1-16,35.5,25.8,12.6,29.2,20.9,10.0,91,82,68,30.15,29.87,11,4,17,0.01
2013-1-17,33.6,25.7,17.1,29.9,19.2,13.2,93,77,57,30.43,30.07,11,4,18,0.00
2013-1-18,42.4,31.0,15.3,32.8,24.7,11.9,90,78,65,30.45,29.94,15,6,20,0.02
2013-1-19,48.2,38.7,25.6,38.9,31.3,14.1,85,75,56,30.00,29.75,33,11,37,0.00
2013-1-20,25.2,17.0,12.6,14.7,7.2,4.2,74,65,55,30.33,30.00,25,12,28,0.00
2013-1-21,13.6,8.5,3.2,7.0,-1.3,-7.5,81,64,46,30.34,30.19,22,14,29,0.00
2013-1-22,12.7,6.7,-1.3,0.8,-2.7,-6.7,80,65,51,30.45,30.33,17,9,19,0.00
2013-1-23,22.9,15.8,11.2,13.5,7.2,0.9,82,68,60,30.40,30.15,16,6,22,0.00
2013-1-24,22.1,14.2,4.5,7.2,2.3,-3.4,71,59,46,30.67,30.37,13,6,16,0.00
2013-1-25,32.3,22.8,15.9,23.4,15.3,5.8,88,73,53,30.38,29.99,14,6,18,0.01
2013-1-26,27.4,18.2,4.8,16.7,10.1,0.5,85,71,53,30.42,30.22,7,2,9,0.00
2013-1-27,39.2,29.7,24.0,37.8,24.9,15.6,96,82,69,30.39,29.88,9,4,15,0.03
2013-1-28,47.7,43.6,39.4,46.6,42.4,38.1,97,96,94,29.94,29.75,11,5,18,0.28
2013-1-29,64.4,55.9,48.4,60.9,54.4,47.4,97,94,87,29.75,29.36,12,6,22,1.09
2013-1-30,48.5,33.2,18.5,47.4,31.2,13.2,97,92,79,29.69,29.21,24,12,31,0.32
2013-1-31,18.3,12.0,3.2,14.2,6.5,-3.3,85,78,72,30.26,29.69,25,19,30,0.00
2013-2-1,17.2,8.0,-0.3,14.0,1.7,-6.0,87,75,66,30.44,30.21,18,10,22,0.00
2013-2-2,24.9,16.5,5.4,22.1,12.4,1.1,91,84,74,30.21,30.03,16,5,18,0.00
2013-2-3,23.7,18.7,9.4,19.0,14.4,6.0,92,83,74,30.10,29.99,17,6,22,0.00
2013-2-4,28.9,23.5,13.3,25.2,19.2,8.5,87,83,79,30.03,29.84,12,6,15,0.00
2013-2-5,32.8,24.8,10.7,29.2,20.9,7.2,93,85,77,30.11,29.82,14,6,18,0.01
2013-2-6,42.9,32.1,18.9,33.7,26.6,15.3,88,80,66,30.23,30.08,6,3,10,0.00
2013-2-7,34.3,32.9,30.3,33.0,31.1,28.3,96,93,86,30.09,29.86,10,3,16,0.79
2013-2-8,30.2,25.1,22.2,28.2,21.8,18.7,92,87,85,30.41,29.99,16,8,23,0.00
2013-2-9,33.9,29.4,24.3,29.2,25.8,21.5,91,86,80,30.41,30.06,8,3,17,0.00
2013-2-10,46.4,39.7,32.6,44.5,36.8,28.0,95,89,71,30.07,29.47,21,8,26,0.42
2013-2-11,40.9,32.5,28.4,33.4,26.0,22.1,83,77,72,30.07,29.53,28,20,38,0.00
2013-2-12,30.6,26.9,21.9,24.4,22.2,19.4,93,82,74,30.13,29.92,17,7,19,0.00
2013-2-13,43.9,32.0,21.8,35.3,28.1,19.8,94,86,65,29.92,29.74,10,3,15,0.00
2013-2-14,40.5,35.1,31.6,33.1,30.6,27.8,91,83,69,29.99,29.66,20,8,24,0.00
2013-2-15,31.7,27.1,19.6,29.3,19.0,11.0,91,72,53,30.21,29.99,16,9,19,0.00
2013-2-16,23.7,16.9,10.1,12.2,8.8,6.1,85,70,56,30.23,30.14,14,7,19,0.00
2013-2-17,32.3,21.1,5.7,22.3,13.0,2.7,91,72,50,30.25,29.97,7,3,12,0.00
2013-2-18,52.2,38.7,25.0,45.6,32.6,20.6,94,79,66,29.97,29.44,29,10,37,0.33
2013-2-19,25.1,14.9,9.2,20.8,9.2,2.5,84,78,72,30.26,29.64,34,20,37,0.00
2013-2-20,21.2,13.7,6.3,14.7,7.7,0.3,86,77,68,30.42,30.26,14,7,18,0.00
2013-2-21,30.7,22.7,12.3,25.3,18.8,9.0,93,85,79,30.40,29.94,21,9,27,0.00
2013-2-22,33.6,27.9,24.1,31.8,24.9,22.1,94,89,80,29.94,29.80,24,9,26,0.02
2013-2-23,28.0,22.3,11.3,22.9,17.7,8.7,89,82,74,30.00,29.94,15,7,19,0.00
2013-2-24,38.1,23.7,8.4,26.9,17.4,5.4,91,78,51,30.15,30.00,4,0,6,0.00
2013-2-25,41.2,30.8,18.2,31.3,25.4,15.6,92,81,64,30.17,29.92,14,5,18,0.00
2013-2-26,34.9,32.5,31.1,30.9,29.3,26.8,96,88,73,29.91,29.49,29,16,30,0.07
2013-2-27,31.9,31.1,29.4,30.9,29.7,28.0,96,94,93,29.75,29.53,11,7,15,0.04
2013-2-28,35.2,32.2,28.1,31.4,29.1,22.3,94,88,78,30.08,29.75,14,8,17,0.02
2013-3-1,28.2,25.6,24.1,23.6,21.4,19.0,88,84,78,30.22,30.07,20,12,22,0.00
2013-3-2,27.4,21.4,8.4,19.5,15.6,4.8,89,78,63,30.23,30.18,12,7,15,0.00
2013-3-3,32.6,18.7,5.9,17.7,11.3,2.7,89,74,47,30.20,30.11,6,1,8,0.00
2013-3-4,32.0,27.4,17.0,27.3,21.6,12.6,84,79,70,30.13,29.96,16,8,22,0.00
2013-3-5,34.7,30.8,25.8,32.8,28.8,24.1,94,92,83,30.02,29.79,17,9,20,0.38
2013-3-6,30.3,27.5,25.2,25.4,23.9,21.9,93,86,81,30.33,30.02,15,9,19,0.03
2013-3-7,38.7,27.1,14.3,26.8,22.1,11.1,92,82,59,30.43,30.33,5,1,6,0.01
2013-3-8,38.2,26.0,8.6,29.4,21.1,5.4,94,82,68,30.49,30.29,7,3,13,0.00
2013-3-9,41.9,37.0,30.9,35.9,32.0,25.9,91,82,78,30.29,29.81,7,5,12,0.11
2013-3-10,44.5,40.7,37.3,43.2,39.3,35.1,97,95,86,29.86,29.55,8,2,10,1.04
2013-3-11,42.9,35.1,31.2,42.1,33.2,27.8,97,93,87,29.84,29.56,16,9,21,0.03
2013-3-12,37.7,30.4,26.3,30.8,25.5,19.9,93,82,69,30.07,29.83,22,15,27,0.01
2013-3-13,32.4,27.3,23.4,23.3,19.6,15.4,84,73,51,30.35,30.06,19,11,21,0.00
2013-3-14,34.8,29.5,22.2,32.1,25.6,19.0,93,85,72,30.36,30.07,6,3,11,0.02
2013-3-15,41.3,34.6,27.8,37.7,32.1,26.2,95,91,84,30.08,29.71,13,2,16,0.01
2013-3-16,34.0,32.0,29.7,32.4,28.7,23.3,95,88,75,30.13,29.68,12,7,16,0.00
2013-3-17,37.0,31.3,26.8,28.5,24.6,19.7,83,76,67,30.20,29.96,13,8,20,0.00
2013-3-18,35.4,29.7,22.6,33.1,25.8,14.7,94,85,70,29.96,29.64,29,12,36,0.07
2013-3-19,33.7,25.0,17.2,23.4,16.5,9.8,77,70,59,30.14,29.85,25,18,35,0.00
2013-3-20,26.2,20.3,13.5,18.4,11.2,4.8,79,68,57,30.16,30.07,20,15,26,0.00
2013-3-21,32.8,21.9,12.3,20.2,13.1,7.6,90,70,50,30.10,30.03,11,5,14,0.00
2013-3-22,39.6,27.8,14.7,24.5,19.5,11.9,92,73,47,30.09,30.02,8,3,12,0.00
2013-3-23,43.4,33.0,21.6,26.3,23.8,18.8,92,70,45,30.13,29.98,14,5,17,0.00
2013-3-24,36.0,31.8,29.2,29.1,27.1,25.2,94,83,67,30.03,29.66,21,12,27,0.00
2013-3-25,35.2,31.1,27.0,29.7,26.3,22.7,90,82,76,30.11,29.72,16,11,23,0.00
2013-3-26,39.2,34.1,31.0,29.1,27.2,24.4,87,76,58,30.27,30.11,12,6,15,0.00
2013-3-27,42.6,35.0,26.3,29.2,25.6,20.3,88,70,43,30.34,30.27,9,4,13,0.00
2013-3-28,49.8,35.5,22.0,35.2,27.2,19.9,94,74,47,30.38,30.28,7,1,10,0.00
2013-3-29,55.0,41.7,28.5,37.6,30.8,25.1,90,68,41,30.32,30.21,6,1,9,0.00
2013-3-30,58.7,44.3,27.1,43.2,34.4,22.9,88,69,50,30.23,29.84,12,4,18,0.00
2013-3-31,57.9,45.9,34.1,43.1,37.4,26.7,94,74,46,29.91,29.72,24,11,28,0.00
2013-4-1,40.0,32.7,26.4,26.6,20.8,14.2,81,63,41,30.21,29.91,14,8,20,0.00
2013-4-2,43.9,32.2,19.9,23.3,19.1,14.0,87,62,32,30.32,30.21,15,6,19,0.00
2013-4-3,48.8,34.9,21.2,22.3,18.5,15.2,87,55,28,30.46,30.32,9,3,13,0.00
2013-4-4,59.2,41.2,22.5,34.4,24.3,16.0,87,54,28,30.32,29.98,10,3,14,0.00
2013-4-5,53.9,42.3,30.2,34.3,26.4,20.4,87,57,29,30.20,30.01,14,6,16,0.00
2013-4-6,69.4,51.6,34.3,48.1,34.7,21.3,86,55,33,30.11,29.59,15,8,26,0.17
2013-4-7,61.8,49.4,39.8,48.2,41.1,35.1,90,74,50,29.94,29.64,19,7,24,0.01
2013-4-8,71.0,57.6,41.5,57.1,50.4,35.5,95,78,57,29.91,29.58,24,9,29,0.51
2013-4-9,76.2,55.3,44.2,63.9,50.2,41.2,91,84,63,29.92,29.75,18,9,21,0.33
2013-4-10,44.2,41.5,37.5,41.4,39.4,35.4,94,92,89,29.98,29.75,22,12,29,0.85
2013-4-11,50.2,43.8,39.1,48.0,41.7,35.0,96,92,84,29.80,29.56,29,10,34,0.08
2013-4-12,42.4,38.3,35.9,38.7,34.0,31.9,92,84,75,29.88,29.58,20,10,25,0.01
2013-4-13,47.2,39.5,34.4,36.1,32.2,28.7,90,75,57,29.97,29.87,17,9,25,0.00
2013-4-14,73.7,55.4,39.9,54.6,43.3,33.5,80,65,45,29.98,29.60,16,9,19,0.00
2013-4-15,63.9,54.4,43.8,55.7,49.4,40.2,94,83,62,29.97,29.64,11,6,18,0.38
2013-4-16,54.4,46.0,38.4,43.8,38.0,34.0,90,75,55,30.24,29.93,14,5,19,0.01
2013-4-17,50.9,45.1,42.4,49.7,40.4,33.7,96,84,67,30.26,29.76,21,11,27,1.67
2013-4-18,62.3,51.7,38.2,59.6,49.6,33.2,97,93,81,29.81,29.39,24,11,31,2.56
2013-4-19,38.3,36.3,33.5,33.6,30.8,28.5,86,80,74,29.96,29.52,25,19,34,0.00
2013-4-20,46.2,37.1,30.2,30.7,28.1,23.9,90,71,47,30.40,29.97,12,5,14,0.00
2013-4-21,54.5,43.2,32.6,38.5,31.8,25.2,79,65,49,30.50,30.30,11,6,20,0.00
2013-4-22,66.5,52.4,36.8,44.0,38.9,32.3,85,62,39,30.30,30.00,8,3,14,0.00
2013-4-23,54.2,45.7,37.4,50.4,42.6,35.0,94,89,68,30.01,29.88,13,5,15,0.52
2013-4-24,49.8,41.4,35.0,36.4,32.8,28.7,92,73,50,30.13,29.94,13,7,19,0.01
2013-4-25,51.7,43.1,37.8,37.1,31.2,24.6,89,64,37,30.31,30.07,21,8,26,0.00
2013-4-26,67.0,51.4,33.6,50.3,40.6,29.1,87,68,49,30.32,30.22,12,5,17,0.00
2013-4-27,67.5,54.8,38.9,49.8,45.2,36.8,95,73,41,30.28,29.97,8,2,14,0.00
2013-4-28,65.0,56.4,51.7,55.7,51.8,48.5,94,85,68,29.97,29.80,6,2,8,0.00
2013-4-29,75.0,61.4,45.8,60.1,53.7,43.9,94,77,55,29.90,29.71,9,5,16,0.01
2013-4-30,85.5,70.8,58.1,63.5,58.1,54.8,90,67,38,29.90,29.73,11,6,17,0.00
2013-5-1,83.9,71.5,57.6,61.6,56.4,53.0,88,62,36,30.07,29.90,6,2,13,0.00
2013-5-2,64.3,56.4,46.0,55.0,49.3,43.6,93,78,58,30.17,30.05,15,8,18,0.43
2013-5-3,56.2,48.1,41.6,53.3,45.7,39.0,94,91,89,30.09,29.87,18,12,22,0.11
2013-5-4,70.4,58.5,50.8,56.7,52.1,48.3,94,81,55,30.01,29.89,12,5,16,0.02
2013-5-5,75.3,61.0,47.3,54.3,48.5,43.0,95,68,33,30.00,29.91,18,6,29,0.01
2013-5-6,76.9,63.1,53.4,50.5,43.6,31.6,81,54,21,30.00,29.91,13,6,16,0.00
2013-5-7,79.6,64.7,44.6,49.9,43.9,36.8,85,51,25,30.02,29.93,8,2,12,0.00
2013-5-8,81.4,65.8,47.3,56.8,48.3,43.4,88,57,28,30.01,29.91,5,1,11,0.00
2013-5-9,73.2,62.7,57.7,60.7,56.7,49.9,95,81,58,29.93,29.76,8,2,12,0.33
2013-5-10,61.1,50.6,46.1,59.7,47.9,44.0,95,90,87,29.97,29.73,10,5,15,0.00
2013-5-11,59.2,50.8,38.6,52.0,39.6,26.0,93,69,35,30.05,29.85,20,9,29,0.00
2013-5-12,55.7,45.2,32.6,33.2,28.8,24.2,83,55,30,30.14,30.05,15,8,22,0.00
2013-5-13,67.3,51.9,30.6,43.7,32.4,24.2,89,53,22,30.18,29.97,10,3,16,0.00
2013-5-14,92.0,72.2,54.0,64.8,52.5,39.5,67,52,27,29.97,29.62,12,6,18,0.00
2013-5-15,84.5,75.6,61.1,58.6,50.9,42.2,62,44,25,29.79,29.62,19,7,27,0.00
2013-5-16,84.4,71.3,55.6,53.7,46.7,39.9,74,45,22,29.91,29.79,11,4,14,0.00
2013-5-17,81.6,67.3,58.2,66.0,56.6,47.1,92,70,48,29.98,29.89,15,4,18,0.38
2013-5-18,79.8,68.6,55.1,67.2,61.2,53.1,96,79,59,30.01,29.88,7,3,12,0.00
2013-5-19,89.3,75.6,59.4,70.3,64.3,57.0,94,70,47,29.91,29.67,11,3,18,0.00
2013-5-20,85.6,75.6,62.6,70.2,62.3,58.0,93,66,42,29.78,29.63,19,7,25,0.59
2013-5-21,81.1,70.8,62.9,69.1,63.4,59.3,92,78,56,29.68,29.61,10,6,15,0.01
2013-5-22,72.0,64.9,59.9,65.0,60.2,55.7,96,85,62,29.73,29.59,16,5,24,0.27
2013-5-23,60.0,54.5,42.7,56.7,50.3,38.8,94,86,72,30.26,29.73,15,6,18,0.11
2013-5-24,63.5,50.4,36.6,45.2,39.3,33.8,90,68,41,30.43,30.26,10,3,14,0.00
2013-5-25,57.7,50.8,45.0,48.1,42.5,37.5,89,74,57,30.39,30.24,15,2,17,0.07
2013-5-26,60.9,53.3,43.9,55.1,48.3,40.5,94,83,72,30.26,30.08,11,4,17,0.42
2013-5-27,67.0,61.7,55.6,63.2,59.1,53.9,96,91,84,30.08,29.79,13,5,15,0.27
2013-5-28,74.5,67.9,61.6,69.8,65.0,60.2,96,91,82,29.83,29.68,18,3,27,0.20
2013-5-29,85.2,72.6,61.6,73.9,66.4,59.7,95,82,63,29.90,29.71,16,2,22,0.15
2013-5-30,84.2,73.2,62.1,73.0,66.7,59.3,95,81,65,29.87,29.70,20,4,21,0.56
2013-5-31,74.8,68.7,61.5,69.4,64.9,60.1,96,88,71,29.82,29.63,9,2,15,0.32
2013-6-1,72.0,67.1,60.8,68.2,63.2,57.6,94,87,80,29.72,29.63,10,4,18,0.12
2013-6-2,62.1,58.1,51.4,59.1,53.0,47.4,93,83,70,30.02,29.72,9,4,16,0.00
2013-6-3,67.6,56.1,43.1,53.4,48.2,41.8,96,77,51,30.12,30.01,4,0,9,0.00
2013-6-4,72.8,61.6,46.0,53.8,49.2,43.8,94,66,44,30.13,30.02,10,3,14,0.00
2013-6-5,75.0,63.7,55.3,58.5,53.0,48.2,83,69,50,30.06,29.86,12,5,15,0.00
2013-6-6,70.0,60.4,55.2,62.0,53.9,48.6,92,80,66,29.90,29.83,12,8,16,0.21
2013-6-7,72.9,61.6,53.1,57.1,50.6,46.1,87,69,46,29.91,29.86,11,3,15,0.00
2013-6-8,77.9,64.3,45.9,55.9,47.6,41.8,92,58,36,29.95,29.89,8,1,11,0.00
2013-6-9,82.7,69.6,58.2,64.1,57.4,47.5,94,67,43,29.95,29.75,9,2,17,0.23
2013-6-10,79.7,69.7,61.7,66.2,62.6,60.1,96,80,57,29.83,29.71,12,3,17,0.00
2013-6-11,87.9,74.3,59.0,69.5,63.7,57.0,94,72,44,29.90,29.74,6,1,9,0.00
2013-6-12,92.9,76.0,66.8,75.0,69.6,64.7,95,82,51,29.85,29.50,11,2,16,1.37
2013-6-13,79.6,70.2,61.1,64.7,59.9,53.4,95,72,46,29.99,29.60,9,3,15,0.16
2013-6-14,78.5,66.2,53.4,62.0,56.7,50.3,91,73,49,30.10,29.96,9,2,12,0.00
2013-6-15,82.3,69.9,61.1,71.0,63.7,55.7,92,81,65,30.01,29.83,16,3,18,0.16
2013-6-16,83.2,73.0,64.1,69.1,65.8,61.9,94,79,57,29.90,29.83,10,4,14,0.00
2013-6-17,86.5,75.3,60.1,67.1,62.3,55.3,96,68,36,29.92,29.81,9,3,12,0.01
2013-6-18,75.3,66.1,57.5,62.6,56.9,50.1,90,73,56,30.03,29.85,14,7,18,0.00
2013-6-19,80.5,67.9,52.6,63.0,55.4,48.3,88,66,47,30.09,30.01,7,3,9,0.00
2013-6-20,89.8,75.2,57.5,68.6,61.1,53.8,88,64,40,30.10,29.99,3,1,8,0.00
2013-6-21,84.9,72.5,66.5,71.3,65.9,60.7,93,80,60,30.12,29.92,14,3,19,0.83
2013-6-22,77.9,72.4,65.6,73.9,68.6,63.5,94,88,78,30.04,29.91,9,2,12,0.20
2013-6-23,86.7,72.3,62.5,77.0,68.2,60.4,97,88,68,30.01,29.88,20,2,38,1.39
2013-6-24,84.5,69.9,65.4,77.1,67.4,63.8,97,92,65,30.06,29.85,29,2,39,0.62
2013-6-25,84.8,75.2,66.4,77.5,71.3,65.2,97,88,74,29.91,29.76,8,2,12,0.01
2013-6-26,83.0,74.3,68.3,75.0,70.0,66.2,94,87,68,29.79,29.67,9,2,12,0.15
2013-6-27,87.3,77.3,67.9,75.3,69.7,62.8,96,79,56,29.76,29.66,16,6,22,0.01
2013-6-28,80.9,71.7,62.7,67.5,62.7,59.2,91,74,52,29.70,29.58,19,7,26,0.00
2013-6-29,69.7,64.8,59.9,65.2,61.9,56.8,96,90,81,29.74,29.56,7,2,11,0.76
2013-6-30,77.9,66.9,57.2,65.4,58.0,48.6,90,74,48,29.95,29.74,11,3,15,0.00
2013-7-1,76.3,66.0,54.8,56.1,53.0,50.3,87,65,42,30.02,29.94,13,5,20,0.00
2013-7-2,73.0,63.0,54.9,59.4,54.8,51.9,91,76,54,30.04,30.00,11,4,16,0.00
2013-7-3,72.4,62.9,56.7,64.2,59.1,54.4,94,88,73,30.05,29.99,3,0,6,0.00
2013-7-4,84.5,69.5,53.8,68.8,62.1,52.4,97,79,52,30.07,29.98,5,1,11,0.18
2013-7-5,85.3,72.5,58.0,70.2,63.9,56.0,95,76,50,30.05,29.97,4,1,8,0.00
2013-7-6,83.4,72.7,61.0,70.5,65.5,59.6,96,80,52,30.02,29.93,4,1,7,0.00
2013-7-7,89.8,77.5,67.1,75.4,69.5,63.7,90,77,56,29.97,29.90,4,1,8,0.00
2013-7-8,87.3,77.6,70.1,76.9,72.1,68.1,94,84,67,29.99,29.90,11,4,15,0.13
2013-7-9,86.0,77.7,72.4,79.4,74.1,70.0,96,89,75,29.96,29.82,14,2,18,0.07
2013-7-10,83.0,75.9,61.9,74.9,68.5,59.5,97,79,57,29.97,29.78,8,2,11,0.00
2013-7-11,80.2,69.4,58.6,64.6,59.4,55.1,96,73,43,30.06,29.97,7,2,11,0.00
2013-7-12,84.2,68.9,52.9,67.0,56.8,51.1,95,69,36,30.12,30.03,4,0,7,0.00
2013-7-13,83.6,72.2,56.7,66.5,61.9,55.0,95,72,49,30.12,30.05,5,2,10,0.00
2013-7-14,87.2,76.0,62.7,74.6,68.3,60.6,95,78,60,30.15,30.08,4,1,8,0.00
2013-7-15,91.9,78.5,67.1,78.0,72.2,65.3,95,82,60,30.22,30.14,5,1,8,0.00
2013-7-16,91.1,81.4,71.9,78.3,74.2,70.1,95,80,61,30.26,30.19,3,1,7,0.00
2013-7-17,93.1,81.2,68.5,79.5,73.7,66.8,96,79,58,30.28,30.13,4,1,8,0.00
2013-7-18,91.9,81.4,70.0,80.7,75.1,68.5,96,82,62,30.14,29.92,8,2,10,0.09
2013-7-19,92.1,82.9,73.7,78.1,73.4,70.3,92,74,55,29.92,29.72,12,4,16,0.00
2013-7-20,87.1,77.6,67.5,72.6,66.9,61.8,92,72,47,29.88,29.77,4,1,8,0.00
2013-7-21,86.5,74.4,62.2,74.4,67.9,60.5,96,81,57,29.91,29.81,4,1,7,0.00
2013-7-22,86.8,75.9,65.7,72.8,68.8,64.0,95,80,58,29.84,29.70,15,2,25,0.00
2013-7-23,77.3,69.3,58.1,67.9,62.3,55.2,96,80,55,29.94,29.65,10,3,12,0.06
2013-7-24,76.1,64.0,50.7,60.8,54.9,49.0,96,75,47,30.03,29.93,6,1,9,0.01
2013-7-25,81.0,65.6,48.1,63.2,56.3,46.5,96,74,49,30.08,30.01,4,1,7,0.00
2013-7-26,73.0,66.2,57.5,67.8,62.1,54.7,93,87,79,30.01,29.86,6,2,12,0.06
2013-7-27,64.5,58.4,52.3,55.4,52.0,47.1,94,80,60,29.92,29.86,13,5,18,0.00
2013-7-28,69.2,58.5,47.8,54.8,50.5,45.2,92,76,54,30.02,29.88,12,4,16,0.01
2013-7-29,77.0,62.2,45.9,63.4,54.2,44.1,95,77,53,30.14,30.02,7,2,11,0.00
2013-7-30,67.2,62.9,57.1,63.9,60.4,54.6,96,92,86,30.14,30.03,5,1,9,0.29
2013-7-31,75.1,67.8,64.0,68.3,64.7,62.1,97,90,76,30.02,29.92,6,1,7,0.02
2013-8-1,78.7,67.6,57.1,64.4,58.8,54.5,96,76,46,29.98,29.91,14,4,20,0.00
2013-8-2,83.3,71.3,62.0,73.0,66.1,59.3,94,84,63,29.92,29.82,12,3,21,0.67
2013-8-3,79.3,70.0,59.5,65.3,60.5,54.6,94,74,44,30.08,29.91,5,1,11,0.00
2013-8-4,80.0,67.7,53.2,64.5,57.6,50.9,94,73,40,30.16,30.06,4,1,7,0.00
2013-8-5,71.8,64.8,56.3,66.6,61.0,54.1,94,88,78,30.08,29.84,8,1,13,0.15
2013-8-6,84.6,72.9,63.8,75.4,69.2,61.8,97,89,71,29.87,29.78,4,1,7,0.00
2013-8-7,85.9,75.9,66.5,76.8,70.7,63.6,96,85,59,29.90,29.76,6,2,10,0.01
2013-8-8,79.9,69.8,61.4,67.3,63.2,58.5,96,81,61,29.97,29.90,6,2,11,0.00
2013-8-9,63.2,62.2,61.1,59.5,58.7,57.8,89,88,88,29.97,29.96,0,0,0,0.00
2013-8-11,68.5,67.7,66.6,65.4,64.9,64.2,92,91,89,30.01,30.00,0,0,1,0.00
2013-8-12,80.7,72.6,64.1,72.0,66.2,61.6,92,81,67,30.02,29.83,9,3,12,0.00
2013-8-13,72.3,63.3,50.5,61.5,53.8,47.7,94,74,45,30.11,29.90,5,1,10,0.00
2013-8-14,73.2,57.4,45.2,60.5,50.7,43.6,96,80,47,30.20,30.11,3,0,8,0.00
2013-8-15,75.4,61.5,47.6,61.3,53.8,45.9,96,78,49,30.16,30.07,5,1,8,0.00
2013-8-16,81.5,65.5,48.3,64.8,55.9,46.7,96,74,43,30.15,30.09,2,0,5,0.01
2013-8-17,81.1,66.1,49.0,64.0,56.1,47.3,96,73,46,30.21,30.12,5,1,9,0.00
2013-8-18,83.9,66.9,50.0,64.4,56.9,48.3,96,74,41,30.18,30.06,3,0,6,0.00
2013-8-19,84.5,68.3,52.1,68.7,60.8,50.4,96,79,54,30.10,30.00,4,1,8,0.00
2013-8-20,86.8,72.2,58.1,71.2,64.5,56.4,96,79,52,30.08,29.99,4,1,8,0.00
2013-8-21,88.4,74.9,61.0,73.7,67.2,59.1,96,79,54,30.05,29.94,5,1,9,0.00
2013-8-22,72.8,69.3,62.9,69.2,66.7,61.4,96,92,86,30.12,29.96,6,1,11,2.57
2013-8-23,82.1,69.0,59.0,68.8,61.6,55.2,97,79,50,30.14,30.06,3,0,9,0.01
2013-8-24,84.7,70.3,55.4,71.9,63.3,53.5,96,80,62,30.22,30.13,1,0,5,0.00
2013-8-25,87.2,74.0,61.3,75.7,66.6,58.3,93,78,63,30.23,30.10,4,0,10,0.00
2013-8-26,88.0,74.7,62.2,78.4,68.7,59.8,94,82,68,30.13,29.98,3,0,8,0.00
2013-8-30,92.9,82.5,68.7,81.7,73.2,62.0,90,74,63,29.89,29.71,23,3,32,1.05
2013-8-31,82.8,72.9,66.8,74.9,69.4,64.7,95,89,74,29.81,29.72,3,1,9,0.02
2013-9-1,85.2,72.5,60.2,76.5,67.8,58.8,97,86,72,29.78,29.68,9,1,10,0.01
2013-9-2,77.6,67.7,56.8,66.7,61.5,54.5,94,81,60,29.96,29.77,6,1,13,0.00
2013-9-3,74.0,62.3,50.9,64.0,56.2,49.2,96,82,58,30.07,29.96,3,0,8,0.01
2013-9-4,81.8,64.7,49.0,68.4,58.2,47.8,97,82,52,30.12,30.02,6,1,10,0.01
2013-9-5,78.1,66.6,57.8,68.9,60.4,53.1,97,82,60,30.19,30.08,6,1,11,0.00
2013-9-6,86.7,69.7,55.7,73.2,62.3,52.7,95,79,59,30.18,29.98,1,0,4,0.00
2013-9-7,85.5,71.3,60.2,75.2,66.1,58.5,96,84,62,29.98,29.85,5,0,9,0.03
2013-9-8,82.4,73.9,68.8,73.8,69.1,66.4,94,85,73,29.95,29.87,5,1,11,0.01
2013-9-9,92.6,79.0,66.9,79.8,72.6,65.5,96,82,63,29.90,29.77,2,0,7,0.00
2013-9-10,91.9,79.3,68.0,74.6,68.4,-99.9,88,71,49,29.97,29.85,10,-3,18,0.00
2013-9-11,89.0,76.8,69.6,74.4,68.9,65.2,92,77,57,30.00,29.95,11,2,14,0.00
2013-9-12,78.8,69.2,54.8,68.6,59.2,50.9,95,74,41,30.05,29.93,12,3,17,0.00
2013-9-13,68.5,56.7,45.5,52.1,47.2,42.5,94,73,40,30.16,30.04,3,0,12,0.00
2013-9-14,72.0,55.2,38.8,52.5,45.9,37.2,96,74,39,30.17,30.01,2,0,9,0.01
2013-9-15,62.4,57.0,51.0,58.3,52.9,46.0,95,86,76,30.14,29.94,3,0,5,0.18
2013-9-16,68.3,57.3,45.5,55.6,50.3,43.1,95,79,52,30.33,30.13,6,2,12,0.00
2013-9-17,71.0,57.6,42.9,58.5,51.4,41.1,96,81,60,30.30,30.08,4,1,11,0.01
2013-9-18,81.9,67.3,57.9,70.5,62.5,53.8,94,85,64,30.08,29.88,13,0,21,0.23
2013-9-19,90.5,77.1,67.6,74.2,69.2,64.9,95,78,53,29.91,29.72,15,2,18,0.32
2013-9-20,71.1,65.2,53.7,66.1,60.2,51.1,96,85,59,29.83,29.72,16,4,19,0.10
2013-9-21,67.8,56.5,46.0,52.2,49.1,43.8,95,78,51,29.94,29.81,10,3,16,0.00
2013-9-22,70.5,54.7,39.1,53.4,46.8,37.6,96,77,49,30.04,29.93,2,0,7,0.01
2013-9-23,72.0,57.0,43.5,53.7,48.5,41.3,94,76,47,30.08,29.97,3,0,7,0.00
2013-9-24,74.5,59.4,47.4,56.2,50.7,45.1,92,75,47,30.01,29.87,6,1,10,0.00
2013-9-25,76.7,60.3,47.8,55.2,51.1,46.2,95,75,43,29.93,29.87,4,0,9,0.00
2013-9-26,79.8,61.4,46.0,58.6,51.7,44.4,97,74,40,30.04,29.92,3,0,8,0.01
2013-9-27,82.1,63.7,46.5,59.2,52.1,44.9,96,70,36,30.13,30.00,4,1,10,0.00
2013-9-28,83.1,67.2,49.8,65.6,57.6,47.3,94,74,46,30.03,29.85,10,2,19,0.32
2013-9-29,70.7,57.4,44.7,59.8,49.0,42.3,96,77,38,30.05,29.92,8,1,13,0.14
2013-9-30,77.7,57.8,39.7,55.9,48.1,38.1,96,74,38,29.99,29.84,2,0,8,0.00
2013-10-1,79.9,67.8,57.6,66.6,62.1,55.4,96,83,57,29.94,29.86,7,2,14,0.00
2013-10-2,82.5,69.1,58.7,67.1,61.1,54.6,97,78,47,30.05,29.93,5,0,9,0.01
2013-10-3,79.8,68.9,63.4,72.6,66.0,61.9,97,91,75,29.93,29.79,3,0,6,0.51
2013-10-4,79.0,68.7,62.5,71.4,65.8,60.4,96,91,77,29.93,29.86,2,0,5,0.00
2013-10-5,78.2,70.3,58.6,72.3,66.4,54.4,96,88,71,29.89,29.72,8,1,14,0.03
2013-10-6,58.7,50.2,43.6,54.2,44.1,39.6,94,80,56,29.78,29.69,10,3,16,0.10
2013-10-7,69.6,53.3,41.4,49.7,45.1,39.8,95,77,43,30.06,29.77,13,5,21,0.01
2013-10-8,77.9,58.1,40.8,54.2,47.2,39.4,96,71,36,30.17,30.06,2,0,8,0.00
2013-10-9,73.1,57.4,42.2,51.2,46.1,40.4,96,70,36,30.22,30.09,6,0,10,0.00
2013-10-10,77.4,58.1,40.6,58.8,50.2,39.0,96,78,47,30.15,30.00,2,0,8,0.00
2013-10-11,78.2,63.6,53.0,62.3,55.2,50.1,92,76,50,30.03,29.89,6,1,12,0.00
2013-10-12,69.6,60.6,45.9,62.1,53.1,40.3,89,77,44,30.17,29.91,12,2,14,0.00
2013-10-13,65.3,49.3,35.5,45.6,37.6,33.4,94,69,33,30.39,30.17,8,1,13,0.01
2013-10-14,64.8,49.4,33.5,47.0,40.8,31.8,96,75,44,30.39,30.09,10,3,14,0.00
2013-10-15,68.6,55.9,44.6,62.6,50.4,41.4,94,82,70,30.10,29.75,12,3,16,0.04
2013-10-16,53.4,49.1,41.5,45.7,43.8,38.8,91,82,75,29.95,29.85,13,6,19,0.00
2013-10-17,57.4,47.6,38.2,46.4,42.4,35.8,95,83,52,29.93,29.82,15,4,24,0.13
2013-10-18,50.2,43.2,35.7,41.7,38.5,33.8,95,84,67,29.98,29.84,15,5,20,0.01
2013-10-19,54.4,45.6,36.0,41.7,37.9,33.5,93,76,47,29.94,29.79,14,4,23,0.02
2013-10-20,66.3,49.3,35.5,48.4,41.9,33.1,95,78,45,29.87,29.69,8,1,13,0.02
2013-10-21,52.5,41.9,27.7,48.2,33.4,24.1,92,73,47,29.99,29.79,18,7,24,0.09
2013-10-22,39.7,31.7,23.0,34.1,29.2,20.8,94,91,72,30.00,29.91,10,1,10,0.26
2013-10-23,44.3,36.5,30.5,33.3,30.3,28.2,95,79,57,30.05,29.94,13,4,16,0.00
2013-10-24,42.0,35.8,27.1,33.3,27.6,23.3,88,73,52,30.33,30.04,14,5,20,0.00
2013-10-25,52.5,37.1,21.5,33.9,27.0,19.0,93,70,42,30.44,30.08,11,3,18,0.00
2013-10-26,53.6,43.6,28.6,38.1,31.5,24.9,87,63,44,30.09,29.88,16,7,21,0.00
2013-10-27,55.5,38.0,23.7,35.3,29.1,21.5,94,73,42,30.09,29.98,10,2,15,0.00
2013-10-28,59.2,42.0,27.9,45.0,35.3,25.2,93,79,53,30.34,30.07,12,5,14,0.00
2013-10-29,56.4,44.3,31.6,46.2,38.8,29.4,95,82,59,30.33,30.11,11,4,11,0.00
2013-10-30,60.2,52.5,44.2,59.2,51.3,42.3,97,95,90,30.12,29.74,7,2,10,1.24
2013-10-31,62.7,57.1,44.6,61.8,55.4,41.6,97,94,89,29.75,29.22,19,8,27,1.16
2013-11-1,48.7,45.3,40.9,43.4,42.1,39.3,95,89,79,29.75,29.43,20,9,23,0.03
2013-11-2,47.9,40.8,34.5,40.6,37.0,31.7,95,87,67,30.14,29.75,12,4,15,0.00
2013-11-3,53.1,39.9,26.2,41.0,33.5,24.6,96,79,54,30.31,30.14,6,2,11,0.01
2013-11-4,58.1,49.1,40.4,45.6,41.1,35.3,83,74,61,30.24,30.07,8,5,18,0.00
2013-11-5,54.0,51.4,48.8,50.7,48.1,45.2,94,88,82,30.24,29.93,9,3,15,0.08
2013-11-6,56.3,45.0,30.9,55.0,42.4,27.5,96,91,81,30.19,29.78,21,9,25,0.49
2013-11-7,44.2,32.3,25.9,36.8,28.7,23.9,93,87,73,30.28,30.19,19,5,25,0.00
2013-11-8,51.0,38.0,23.5,36.3,30.7,21.5,95,76,53,30.35,29.93,10,3,15,0.01
2013-11-9,58.4,48.1,40.0,43.0,38.8,32.6,84,71,53,30.15,29.87,21,12,26,0.00
2013-11-10,47.5,39.1,29.0,35.0,31.8,25.9,90,76,57,30.37,30.15,13,6,15,0.00
2013-11-11,46.9,37.1,23.0,38.3,31.0,17.9,92,79,67,30.53,30.08,17,7,20,0.07
2013-11-12,31.4,23.7,17.9,22.0,17.8,14.4,88,78,60,30.74,30.54,12,6,16,0.00
2013-11-13,40.0,28.5,17.0,23.9,19.8,13.4,88,71,47,30.64,30.18,11,6,17,0.00
2013-11-14,51.0,38.7,28.3,31.9,26.3,21.7,77,62,45,30.19,29.95,11,5,16,0.00
2013-11-15,47.1,40.7,34.0,38.4,32.9,27.7,88,74,57,29.98,29.90,8,4,13,0.00
2013-11-16,59.0,51.5,38.7,56.1,48.8,35.1,94,91,86,29.92,29.55,13,7,19,0.05
2013-11-17,67.7,53.8,41.5,64.0,50.4,36.9,96,88,76,29.77,29.12,32,13,38,1.26
2013-11-18,42.8,37.1,29.5,37.3,31.3,25.3,88,80,63,30.27,29.77,27,14,31,0.00
2013-11-19,42.1,32.1,23.0,31.5,26.6,20.5,92,81,58,30.38,30.26,6,2,8,0.00
2013-11-20,41.6,35.8,27.6,37.1,31.5,25.1,94,85,72,30.28,30.07,10,4,15,0.23
2013-11-21,48.1,43.8,39.0,45.6,41.7,37.1,95,92,87,30.21,30.09,6,1,8,0.04
2013-11-22,41.3,34.6,25.1,39.2,31.0,22.2,93,87,74,30.50,30.19,14,8,18,0.02
2013-11-23,25.6,20.7,13.2,22.8,13.1,7.1,89,73,53,30.75,30.47,18,10,22,0.00
2013-11-24,28.0,18.1,10.0,12.8,8.9,5.2,84,68,42,30.77,30.41,9,4,10,0.00
2013-11-25,31.1,27.0,19.3,26.7,20.7,12.5,89,77,62,30.42,30.09,14,7,21,0.00
2013-11-26,34.1,27.6,15.2,28.0,21.2,7.5,91,77,59,30.21,30.04,18,8,25,0.00
2013-11-27,27.2,18.7,11.4,15.7,10.5,5.5,82,71,52,30.30,30.19,11,6,17,0.00
2013-11-28,34.4,24.8,14.1,19.8,16.1,11.2,88,70,54,30.52,30.21,12,4,15,0.00
2013-11-29,36.6,23.8,8.4,23.4,16.4,5.3,92,75,50,30.65,30.40,5,2,8,0.00
2013-11-30,52.2,35.1,23.7,34.6,27.3,20.5,90,74,50,30.40,30.06,8,2,13,0.00
2013-12-1,45.1,33.5,23.2,34.4,28.6,21.0,94,83,63,30.12,29.98,7,2,10,0.00
2013-12-2,42.5,36.4,30.7,35.2,31.7,28.0,92,84,67,29.98,29.71,9,4,11,0.04
2013-12-3,47.8,42.7,36.3,46.7,41.3,34.4,96,95,92,29.71,29.63,6,3,9,0.00
2013-12-4,54.1,47.5,33.4,53.3,46.0,30.2,97,95,85,29.74,29.47,22,6,30,0.02
2013-12-5,33.2,23.3,19.3,30.2,17.6,12.3,90,79,72,30.31,29.74,24,15,29,0.00
2013-12-6,19.3,15.5,10.1,12.7,9.1,4.9,83,76,66,30.60,30.27,12,6,16,0.00
2013-12-7,19.8,10.9,4.6,7.6,4.5,0.6,87,76,53,30.75,30.59,8,3,12,0.00
2013-12-8,22.8,19.2,10.3,20.4,15.1,5.8,93,84,74,30.64,29.99,16,7,16,0.00
2013-12-9,22.7,13.4,-3.7,21.0,8.8,-8.1,93,82,70,30.30,29.98,24,12,24,0.00
2013-12-10,20.9,11.1,-6.4,13.4,4.8,-10.6,85,76,63,30.35,30.08,26,9,33,0.00
2013-12-11,17.9,9.6,-7.5,14.1,4.8,-12.6,90,81,61,30.63,30.31,16,5,19,0.00
2013-12-12,21.3,7.7,-9.1,13.4,2.4,-13.6,89,79,67,30.61,30.25,13,4,17,0.00
2013-12-13,28.0,18.9,4.5,24.5,15.2,1.3,93,85,76,30.25,30.08,12,5,14,0.00
2013-12-14,30.4,25.3,10.2,29.0,23.5,7.6,95,93,88,30.09,29.91,14,10,18,0.02
2013-12-15,17.0,11.6,5.0,14.1,7.3,1.5,91,83,77,30.16,29.99,22,9,28,0.00
2013-12-16,19.6,14.6,7.8,15.2,11.2,4.0,92,86,78,30.17,30.05,9,4,11,0.00
2013-12-17,31.7,23.6,16.1,26.9,20.0,11.6,93,86,77,30.15,30.00,17,10,20,0.01
2013-12-18,35.3,22.4,4.6,30.1,16.8,1.2,91,79,63,30.20,29.85,12,5,15,0.00
2013-12-19,40.6,33.6,25.0,35.9,30.8,22.5,96,90,81,29.92,29.77,9,2,11,0.06
2013-12-20,33.7,32.3,29.2,32.7,31.2,27.6,96,96,94,29.82,29.72,12,6,15,0.14
2013-12-21,33.4,29.9,27.2,31.9,28.2,24.9,95,93,91,29.87,29.58,15,7,17,0.15
2013-12-22,33.3,28.4,20.7,31.7,26.1,17.6,95,91,87,30.17,29.59,15,8,18,0.07
2013-12-23,20.6,7.0,-1.4,17.8,2.8,-6.2,89,82,77,30.54,30.17,20,14,23,0.00
2013-12-24,18.5,5.1,-5.3,13.6,0.3,-9.7,84,80,72,30.65,30.37,12,6,14,0.00
2013-12-25,26.5,23.5,18.5,24.2,20.2,13.4,92,87,79,30.38,30.14,14,7,18,0.00
2013-12-26,34.6,25.5,10.5,30.3,21.1,7.1,90,83,76,30.32,30.16,17,6,20,0.04
2013-12-27,41.4,31.8,18.9,34.1,27.9,17.1,94,86,73,30.31,30.11,10,3,13,0.04
2013-12-28,47.3,37.7,28.6,38.2,32.6,25.9,93,82,69,30.11,29.83,7,4,10,0.00
2013-12-29,35.7,25.8,10.2,31.3,22.1,4.4,95,86,77,30.24,29.77,17,10,23,0.00
2013-12-30,10.5,6.4,-0.6,6.6,1.3,-6.5,87,79,74,30.38,30.23,11,3,13,0.00
2013-12-31,12.5,5.9,-8.4,8.8,2.3,-12.2,87,85,81,30.43,30.24,13,4,15,0.00
2014-1-1,22.0,17.0,12.2,18.8,14.0,8.6,91,88,83,30.31,30.18,18,11,23,0.00
2014-1-2,14.5,10.1,-0.9,11.3,5.7,-6.2,87,82,75,30.47,30.15,17,11,20,0.00